createdAt,value
2016-10-05T03:01:18.827Z,1037.77
2016-10-05T03:01:44.764Z,1037.76
2016-10-05T03:02:10.566Z,1037.76
2016-10-05T03:02:36.060Z,1037.72
2016-10-05T03:03:02.136Z,1037.74
2016-10-05T03:03:27.999Z,1037.74
2016-10-05T03:03:53.690Z,1037.72
2016-10-05T03:04:19.832Z,1037.73
2016-10-05T03:04:45.643Z,1037.74
2016-10-05T03:05:11.347Z,1037.8
2016-10-05T03:05:37.104Z,1037.78
2016-10-05T03:06:02.799Z,1037.8
2016-10-05T03:06:28.408Z,1037.74
2016-10-05T03:06:53.968Z,1037.74
2016-10-05T03:07:19.529Z,1037.77
2016-10-05T03:07:45.171Z,1037.82
2016-10-05T03:08:11.441Z,1037.83
2016-10-05T03:08:37.140Z,1037.81
2016-10-05T03:09:02.756Z,1037.72
2016-10-05T03:09:28.443Z,1037.76
2016-10-05T03:09:54.018Z,1037.81
2016-10-05T03:10:19.768Z,1037.84
2016-10-05T03:10:45.419Z,1037.79
2016-10-05T03:11:10.968Z,1037.82
2016-10-05T03:11:36.601Z,1037.8
2016-10-05T03:12:02.159Z,1037.81
2016-10-05T03:12:27.840Z,1037.79
2016-10-05T03:12:53.502Z,1037.79
2016-10-05T03:13:19.060Z,1037.85
2016-10-05T03:13:44.689Z,1037.81
2016-10-05T03:14:10.230Z,1037.81
2016-10-05T03:14:35.793Z,1037.8
2016-10-05T03:15:01.374Z,1037.79
2016-10-05T03:15:59.601Z,1037.77
2016-10-05T03:16:25.153Z,1037.77
2016-10-05T03:16:50.945Z,1037.81
2016-10-05T03:17:16.571Z,1037.82
2016-10-05T03:17:42.156Z,1037.86
2016-10-05T03:18:07.835Z,1037.83
2016-10-05T03:18:33.503Z,1037.81
2016-10-05T03:18:59.072Z,1037.83
2016-10-05T03:19:24.755Z,1037.86
2016-10-05T03:19:50.326Z,1037.85
2016-10-05T03:20:16.059Z,1037.88
2016-10-05T03:20:41.670Z,1037.86
2016-10-05T03:21:07.221Z,1037.87
2016-10-05T03:21:32.868Z,1037.89
2016-10-05T03:21:58.444Z,1037.88
2016-10-05T03:22:24.031Z,1037.91
2016-10-05T03:22:49.693Z,1037.89
2016-10-05T03:23:15.241Z,1037.91
2016-10-05T03:23:40.842Z,1037.9
2016-10-05T03:24:06.450Z,1037.84
2016-10-05T03:24:32.032Z,1037.89
2016-10-05T03:24:57.612Z,1037.88
2016-10-05T03:25:23.174Z,1037.84
2016-10-05T03:25:48.845Z,1037.87
2016-10-05T03:26:14.530Z,1037.85
2016-10-05T03:26:40.094Z,1037.87
2016-10-05T03:27:05.754Z,1037.84
2016-10-05T03:27:31.357Z,1037.86
2016-10-05T03:27:57.176Z,1037.88
2016-10-05T03:28:22.799Z,1037.86
2016-10-05T03:28:48.369Z,1037.88
2016-10-05T03:29:13.948Z,1037.91
2016-10-05T03:29:39.564Z,1037.87
2016-10-05T03:30:05.125Z,1037.86
2016-10-05T03:30:30.761Z,1037.84
2016-10-05T03:30:56.366Z,1037.84
2016-10-05T03:31:21.929Z,1037.86
2016-10-05T03:31:47.575Z,1037.88
2016-10-05T03:32:13.139Z,1037.86
2016-10-05T03:32:38.765Z,1037.88
2016-10-05T03:33:04.346Z,1037.82
2016-10-05T03:33:29.965Z,1037.89
2016-10-05T03:33:55.551Z,1037.89
2016-10-05T03:34:21.107Z,1037.86
2016-10-05T03:34:46.788Z,1037.87
2016-10-05T03:35:12.344Z,1037.87
2016-10-05T03:35:37.906Z,1037.81
2016-10-05T03:36:03.471Z,1037.82
2016-10-05T03:37:21.115Z,1037.84
2016-10-05T03:37:46.716Z,1037.85
2016-10-05T03:38:12.314Z,1037.87
2016-10-05T03:38:37.940Z,1037.88
2016-10-05T03:39:03.707Z,1037.84
2016-10-05T03:39:29.257Z,1037.85
2016-10-05T03:39:54.936Z,1037.87
2016-10-05T03:40:21.007Z,1037.87
2016-10-05T03:40:46.573Z,1037.84
2016-10-05T03:41:12.945Z,1037.84
2016-10-05T03:41:38.535Z,1037.86
2016-10-05T03:42:04.101Z,1037.87
2016-10-05T03:42:30.234Z,1037.86
2016-10-05T03:42:55.832Z,1037.88
2016-10-05T03:43:22.056Z,1037.83
2016-10-05T03:43:47.612Z,1037.82
2016-10-05T03:44:13.774Z,1037.86
2016-10-05T03:44:39.339Z,1037.84
2016-10-05T03:45:04.985Z,1037.86
2016-10-05T03:45:31.207Z,1037.83
2016-10-05T03:45:56.802Z,1037.81
2016-10-05T03:46:23.006Z,1037.8
2016-10-05T03:46:48.630Z,1037.78
2016-10-05T03:47:14.256Z,1037.8
2016-10-05T03:47:40.297Z,1037.77
2016-10-05T03:48:05.841Z,1037.79
2016-10-05T03:48:32.096Z,1037.81
2016-10-05T03:48:57.657Z,1037.81
2016-10-05T03:49:23.896Z,1037.8
2016-10-05T03:49:49.598Z,1037.81
2016-10-05T03:50:15.228Z,1037.8
2016-10-05T03:50:41.251Z,1037.81
2016-10-05T03:51:06.881Z,1037.8
2016-10-05T03:51:33.047Z,1037.77
2016-10-05T03:51:58.621Z,1037.76
2016-10-05T03:52:24.286Z,1037.72
2016-10-05T03:52:50.377Z,1037.69
2016-10-05T03:53:16.003Z,1037.68
2016-10-05T03:53:42.142Z,1037.69
2016-10-05T03:54:07.718Z,1037.7
2016-10-05T03:54:33.937Z,1037.7
2016-10-05T03:54:59.519Z,1037.76
2016-10-05T03:55:25.141Z,1037.71
2016-10-05T03:55:51.336Z,1037.73
2016-10-05T03:56:16.946Z,1037.73
2016-10-05T03:56:43.167Z,1037.72
2016-10-05T03:57:08.754Z,1037.69
2016-10-05T03:57:34.419Z,1037.73
2016-10-05T03:58:00.496Z,1037.72
2016-10-05T03:58:26.069Z,1037.72
2016-10-05T03:58:52.271Z,1037.72
2016-10-05T03:59:17.829Z,1037.7
2016-10-05T03:59:44.488Z,1037.76
2016-10-05T04:00:10.080Z,1037.73
2016-10-05T04:00:35.659Z,1037.77
2016-10-05T04:01:01.475Z,1037.77
2016-10-05T04:01:27.076Z,1037.8
2016-10-05T04:01:53.213Z,1037.81
2016-10-05T04:02:18.764Z,1037.79
2016-10-05T04:02:44.361Z,1037.76
2016-10-05T04:03:10.472Z,1037.79
2016-10-05T04:03:36.130Z,1037.81
2016-10-05T04:04:02.405Z,1037.78
2016-10-05T04:04:28.150Z,1037.78
2016-10-05T04:04:54.145Z,1037.77
2016-10-05T04:05:19.716Z,1037.84
2016-10-05T04:05:45.292Z,1037.82
2016-10-05T04:06:11.584Z,1037.79
2016-10-05T04:06:37.209Z,1037.76
2016-10-05T04:07:03.344Z,1037.79
2016-10-05T04:07:28.918Z,1037.75
2016-10-05T04:07:54.480Z,1037.77
2016-10-05T04:08:20.748Z,1037.77
2016-10-05T04:08:46.381Z,1037.73
2016-10-05T04:09:12.526Z,1037.7
2016-10-05T04:09:38.089Z,1037.72
2016-10-05T04:10:04.248Z,1037.7
2016-10-05T04:10:29.807Z,1037.71
2016-10-05T04:10:55.436Z,1037.71
2016-10-05T04:11:21.638Z,1037.69
2016-10-05T04:11:47.260Z,1037.71
2016-10-05T04:12:13.405Z,1037.69
2016-10-05T04:12:38.971Z,1037.67
2016-10-05T04:13:04.643Z,1037.63
2016-10-05T04:13:30.746Z,1037.63
2016-10-05T04:13:56.360Z,1037.65
2016-10-05T04:14:22.567Z,1037.67
2016-10-05T04:14:48.153Z,1037.62
2016-10-05T04:15:14.298Z,1037.65
2016-10-05T04:15:39.870Z,1037.63
2016-10-05T04:16:05.427Z,1037.6
2016-10-05T04:16:31.618Z,1037.61
2016-10-05T04:16:57.188Z,1037.62
2016-10-05T04:17:23.442Z,1037.59
2016-10-05T04:17:49.004Z,1037.6
2016-10-05T04:18:14.674Z,1037.6
2016-10-05T04:18:40.748Z,1037.62
2016-10-05T04:19:06.309Z,1037.6
2016-10-05T04:19:32.590Z,1037.59
2016-10-05T04:19:58.159Z,1037.6
2016-10-05T04:20:24.431Z,1037.61
2016-10-05T04:20:50.017Z,1037.6
2016-10-05T04:21:15.614Z,1037.62
2016-10-05T04:21:41.779Z,1037.62
2016-10-05T04:22:07.447Z,1037.62
2016-10-05T04:22:33.648Z,1037.62
2016-10-05T04:22:59.213Z,1037.67
2016-10-05T04:23:24.845Z,1037.6
2016-10-05T04:23:50.939Z,1037.65
2016-10-05T04:24:16.521Z,1037.59
2016-10-05T04:24:42.737Z,1037.59
2016-10-05T04:25:08.537Z,1037.63
2016-10-05T04:25:34.536Z,1037.63
2016-10-05T04:26:00.110Z,1037.65
2016-10-05T04:26:25.723Z,1037.64
2016-10-05T04:26:52.719Z,1037.63
2016-10-05T04:27:18.291Z,1037.65
2016-10-05T04:27:43.954Z,1037.7
2016-10-05T04:28:09.575Z,1037.66
2016-10-05T04:28:35.134Z,1037.67
2016-10-05T04:29:01.032Z,1037.66
2016-10-05T04:29:26.596Z,1037.64
2016-10-05T04:29:52.877Z,1037.67
2016-10-05T04:30:18.551Z,1037.64
2016-10-05T04:30:44.608Z,1037.67
2016-10-05T04:31:10.144Z,1037.72
2016-10-05T04:31:35.710Z,1037.66
2016-10-05T04:32:02.055Z,1037.71
2016-10-05T04:32:27.660Z,1037.7
2016-10-05T04:32:53.817Z,1037.67
2016-10-05T04:33:19.389Z,1037.63
2016-10-05T04:33:45.060Z,1037.63
2016-10-05T04:34:11.094Z,1037.62
2016-10-05T04:34:36.683Z,1037.65
2016-10-05T04:35:02.922Z,1037.65
2016-10-05T04:35:28.467Z,1037.66
2016-10-05T04:35:54.687Z,1037.61
2016-10-05T04:36:20.277Z,1037.61
2016-10-05T04:36:45.895Z,1037.6
2016-10-05T04:37:12.138Z,1037.56
2016-10-05T04:37:37.729Z,1037.57
2016-10-05T04:38:03.848Z,1037.62
2016-10-05T04:38:29.409Z,1037.62
2016-10-05T04:38:55.003Z,1037.63
2016-10-05T04:39:21.255Z,1037.6
2016-10-05T04:39:46.857Z,1037.63
2016-10-05T04:40:13.011Z,1037.58
2016-10-05T04:40:38.563Z,1037.62
2016-10-05T04:41:04.809Z,1037.58
2016-10-05T04:41:30.374Z,1037.6
2016-10-05T04:41:56.006Z,1037.61
2016-10-05T04:42:22.204Z,1037.61
2016-10-05T04:42:47.820Z,1037.6
2016-10-05T04:43:13.949Z,1037.62
2016-10-05T04:43:39.525Z,1037.57
2016-10-05T04:44:05.134Z,1037.61
2016-10-05T04:44:31.283Z,1037.57
2016-10-05T04:44:56.846Z,1037.61
2016-10-05T04:45:23.125Z,1037.58
2016-10-05T04:45:48.694Z,1037.56
2016-10-05T04:46:14.857Z,1037.58
2016-10-05T04:46:40.419Z,1037.56
2016-10-05T04:47:06.079Z,1037.58
2016-10-05T04:47:32.265Z,1037.58
2016-10-05T04:47:57.887Z,1037.58
2016-10-05T04:48:24.052Z,1037.58
2016-10-05T04:48:49.639Z,1037.63
2016-10-05T04:49:15.254Z,1037.6
2016-10-05T04:49:41.366Z,1037.58
2016-10-05T04:50:06.991Z,1037.6
2016-10-05T04:50:33.192Z,1037.59
2016-10-05T04:50:58.755Z,1037.55
2016-10-05T04:51:24.941Z,1037.57
2016-10-05T04:51:50.535Z,1037.58
2016-10-05T04:52:16.132Z,1037.57
2016-10-05T04:52:42.317Z,1037.57
2016-10-05T04:53:08.006Z,1037.53
2016-10-05T04:53:34.179Z,1037.57
2016-10-05T04:53:59.759Z,1037.58
2016-10-05T04:54:25.436Z,1037.55
2016-10-05T04:54:51.470Z,1037.53
2016-10-05T04:55:17.116Z,1037.51
2016-10-05T04:55:43.339Z,1037.53
2016-10-05T04:56:08.877Z,1037.55
2016-10-05T04:56:35.068Z,1037.56
2016-10-05T04:57:00.637Z,1037.58
2016-10-05T04:57:26.246Z,1037.59
2016-10-05T04:57:52.455Z,1037.58
2016-10-05T04:58:18.129Z,1037.6
2016-10-05T04:58:44.210Z,1037.55
2016-10-05T04:59:09.781Z,1037.54
2016-10-05T04:59:35.390Z,1037.58
2016-10-05T05:00:01.592Z,1037.56
2016-10-05T05:00:27.162Z,1037.55
2016-10-05T05:00:53.341Z,1037.56
2016-10-05T05:01:18.932Z,1037.53
2016-10-05T05:01:45.087Z,1037.58
2016-10-05T05:02:10.693Z,1037.55
2016-10-05T05:02:36.350Z,1037.59
2016-10-05T05:03:02.458Z,1037.61
2016-10-05T05:03:28.185Z,1037.57
2016-10-05T05:03:54.330Z,1037.57
2016-10-05T05:04:19.889Z,1037.58
2016-10-05T05:04:45.556Z,1037.56
2016-10-05T05:05:11.662Z,1037.58
2016-10-05T05:05:37.246Z,1037.62
2016-10-05T05:06:03.492Z,1037.57
2016-10-05T05:06:29.064Z,1037.61
2016-10-05T05:06:55.208Z,1037.6
2016-10-05T05:07:20.832Z,1037.6
2016-10-05T05:07:46.433Z,1037.59
2016-10-05T05:08:12.724Z,1037.58
2016-10-05T05:08:38.282Z,1037.58
2016-10-05T05:09:04.420Z,1037.63
2016-10-05T05:09:30.044Z,1037.6
2016-10-05T05:09:55.643Z,1037.59
2016-10-05T05:10:21.828Z,1037.67
2016-10-05T05:10:47.399Z,1037.62
2016-10-05T05:11:13.564Z,1037.69
2016-10-05T05:11:39.121Z,1037.66
2016-10-05T05:12:05.277Z,1037.62
2016-10-05T05:12:30.840Z,1037.68
2016-10-05T05:12:56.539Z,1037.7
2016-10-05T05:13:22.692Z,1037.67
2016-10-05T05:13:48.349Z,1037.69
2016-10-05T05:14:14.547Z,1037.65
2016-10-05T05:14:40.147Z,1037.7
2016-10-05T05:15:05.714Z,1037.7
2016-10-05T05:15:31.907Z,1037.71
2016-10-05T05:15:57.559Z,1037.68
2016-10-05T05:16:23.666Z,1037.65
2016-10-05T05:16:49.432Z,1037.69
2016-10-05T05:17:15.424Z,1037.68
2016-10-05T05:17:40.985Z,1037.68
2016-10-05T05:18:06.621Z,1037.67
2016-10-05T05:18:32.878Z,1037.66
2016-10-05T05:18:58.461Z,1037.65
2016-10-05T05:19:24.643Z,1037.66
2016-10-05T05:19:50.187Z,1037.65
2016-10-05T05:20:15.881Z,1037.67
2016-10-05T05:20:41.908Z,1037.67
2016-10-05T05:21:07.512Z,1037.65
2016-10-05T05:21:33.706Z,1037.65
2016-10-05T05:21:59.350Z,1037.68
2016-10-05T05:22:25.523Z,1037.63
2016-10-05T05:22:51.086Z,1037.64
2016-10-05T05:23:16.717Z,1037.63
2016-10-05T05:23:42.935Z,1037.63
2016-10-05T05:24:08.552Z,1037.62
2016-10-05T05:24:34.694Z,1037.61
2016-10-05T05:25:00.256Z,1037.59
2016-10-05T05:25:25.890Z,1037.61
2016-10-05T05:25:52.195Z,1037.61
2016-10-05T05:26:17.852Z,1037.62
2016-10-05T05:26:43.895Z,1037.63
2016-10-05T05:27:09.460Z,1037.63
2016-10-05T05:27:35.595Z,1037.64
2016-10-05T05:28:01.197Z,1037.62
2016-10-05T05:28:26.783Z,1037.64
2016-10-05T05:28:53.038Z,1037.61
2016-10-05T05:29:18.603Z,1037.63
2016-10-05T05:29:44.809Z,1037.61
2016-10-05T05:30:10.367Z,1037.59
2016-10-05T05:30:35.923Z,1037.63
2016-10-05T05:31:02.126Z,1037.6
2016-10-05T05:31:27.701Z,1037.59
2016-10-05T05:31:53.901Z,1037.64
2016-10-05T05:32:19.480Z,1037.59
2016-10-05T05:32:45.693Z,1037.64
2016-10-05T05:33:11.256Z,1037.6
2016-10-05T05:33:36.904Z,1037.6
2016-10-05T05:34:03.075Z,1037.61
2016-10-05T05:34:28.699Z,1037.64
2016-10-05T05:34:54.862Z,1037.63
2016-10-05T05:35:20.441Z,1037.65
2016-10-05T05:35:46.160Z,1037.62
2016-10-05T05:36:12.259Z,1037.64
2016-10-05T05:36:37.843Z,1037.68
2016-10-05T05:37:04.010Z,1037.65
2016-10-05T05:37:29.577Z,1037.6
2016-10-05T05:37:55.832Z,1037.64
2016-10-05T05:38:21.409Z,1037.66
2016-10-05T05:38:47.072Z,1037.61
2016-10-05T05:39:13.205Z,1037.64
2016-10-05T05:39:38.754Z,1037.65
2016-10-05T05:40:04.977Z,1037.67
2016-10-05T05:40:30.549Z,1037.61
2016-10-05T05:40:56.182Z,1037.62
2016-10-05T05:41:22.369Z,1037.66
2016-10-05T05:41:48.008Z,1037.69
2016-10-05T05:42:14.196Z,1037.64
2016-10-05T05:42:40.059Z,1037.72
2016-10-05T05:43:05.883Z,1037.68
2016-10-05T05:43:31.571Z,1037.68
2016-10-05T05:43:57.147Z,1037.7
2016-10-05T05:44:23.321Z,1037.67
2016-10-05T05:44:48.944Z,1037.68
2016-10-05T05:45:15.110Z,1037.69
2016-10-05T05:45:40.662Z,1037.66
2016-10-05T05:46:06.367Z,1037.67
2016-10-05T05:46:32.411Z,1037.65
2016-10-05T05:46:58.130Z,1037.65
2016-10-05T05:47:24.180Z,1037.74
2016-10-05T05:47:49.748Z,1037.67
2016-10-05T05:48:16.122Z,1037.67
2016-10-05T05:48:41.680Z,1037.65
2016-10-05T05:49:07.356Z,1037.67
2016-10-05T05:49:33.397Z,1037.66
2016-10-05T05:49:59.051Z,1037.66
2016-10-05T05:50:25.171Z,1037.66
2016-10-05T05:50:50.735Z,1037.66
2016-10-05T05:51:16.365Z,1037.62
2016-10-05T05:51:42.509Z,1037.63
2016-10-05T05:52:08.154Z,1037.63
2016-10-05T05:52:34.326Z,1037.62
2016-10-05T05:53:00.076Z,1037.63
2016-10-05T05:53:26.046Z,1037.6
2016-10-05T05:53:51.664Z,1037.63
2016-10-05T05:54:17.241Z,1037.62
2016-10-05T05:54:43.406Z,1037.61
2016-10-05T05:55:09.042Z,1037.62
2016-10-05T05:55:35.323Z,1037.66
2016-10-05T05:56:00.883Z,1037.67
2016-10-05T05:56:28.970Z,1037.66
2016-10-05T05:56:55.504Z,1037.69
2016-10-05T05:57:21.160Z,1037.7
2016-10-05T05:57:46.710Z,1037.73
2016-10-05T05:58:12.331Z,1037.69
2016-10-05T05:58:37.912Z,1037.7
2016-10-05T05:59:03.514Z,1037.7
2016-10-05T05:59:29.191Z,1037.66
2016-10-05T05:59:54.798Z,1037.72
2016-10-05T06:00:20.474Z,1037.69
2016-10-05T06:00:46.044Z,1037.67
2016-10-05T06:01:54.448Z,1037.66
2016-10-05T06:02:20.011Z,1037.63
2016-10-05T06:02:45.603Z,1037.62
2016-10-05T06:03:11.276Z,1037.64
2016-10-05T06:03:36.839Z,1037.62
2016-10-05T06:04:02.441Z,1037.61
2016-10-05T06:04:28.088Z,1037.63
2016-10-05T06:04:53.650Z,1037.63
2016-10-05T06:05:19.251Z,1037.63
2016-10-05T06:05:44.830Z,1037.58
2016-10-05T06:06:10.480Z,1037.58
2016-10-05T06:06:36.181Z,1037.65
2016-10-05T06:07:39.738Z,1037.6
2016-10-05T06:08:05.325Z,1037.64
2016-10-05T06:08:30.877Z,1037.62
2016-10-05T06:08:56.554Z,1037.65
2016-10-05T06:09:22.163Z,1037.63
2016-10-05T06:10:25.712Z,1037.66
2016-10-05T06:10:51.368Z,1037.65
2016-10-05T06:11:16.939Z,1037.64
2016-10-05T06:11:42.599Z,1037.6
2016-10-05T06:12:08.233Z,1037.62
2016-10-05T06:12:33.816Z,1037.64
2016-10-05T06:12:59.444Z,1037.66
2016-10-05T06:13:25.004Z,1037.62
2016-10-05T06:13:50.557Z,1037.64
2016-10-05T06:14:16.228Z,1037.65
2016-10-05T06:14:41.839Z,1037.63
2016-10-05T06:15:07.449Z,1037.69
2016-10-05T06:15:33.013Z,1037.66
2016-10-05T06:15:58.688Z,1037.66
2016-10-05T06:16:24.429Z,1037.63
2016-10-05T06:16:49.995Z,1037.63
2016-10-05T06:17:15.676Z,1037.64
2016-10-05T06:17:41.364Z,1037.59
2016-10-05T06:18:06.944Z,1037.61
2016-10-05T06:18:32.633Z,1037.57
2016-10-05T06:18:58.220Z,1037.62
2016-10-05T06:19:24.518Z,1037.63
2016-10-05T06:19:50.137Z,1037.65
2016-10-05T06:20:15.822Z,1037.62
2016-10-05T06:20:41.379Z,1037.67
2016-10-05T06:21:06.952Z,1037.71
2016-10-05T06:21:32.542Z,1037.72
2016-10-05T06:21:58.095Z,1037.7
2016-10-05T06:22:23.758Z,1037.69
2016-10-05T06:22:49.402Z,1037.69
2016-10-05T06:23:14.982Z,1037.69
2016-10-05T06:23:40.611Z,1037.69
2016-10-05T06:24:06.165Z,1037.67
2016-10-05T06:24:32.355Z,1037.62
2016-10-05T06:24:57.865Z,1037.67
2016-10-05T06:25:23.444Z,1037.62
2016-10-05T06:25:48.992Z,1037.67
2016-10-05T06:26:14.581Z,1037.63
2016-10-05T06:26:40.149Z,1037.61
2016-10-05T06:27:05.710Z,1037.63
2016-10-05T06:27:31.265Z,1037.66
2016-10-05T06:27:56.891Z,1037.64
2016-10-05T06:28:22.433Z,1037.66
2016-10-05T06:28:48.051Z,1037.66
2016-10-05T06:29:13.712Z,1037.66
2016-10-05T06:29:39.262Z,1037.6
2016-10-05T06:30:04.867Z,1037.65
2016-10-05T06:30:30.494Z,1037.67
2016-10-05T06:31:33.815Z,1037.61
2016-10-05T06:31:59.557Z,1037.64
2016-10-05T06:33:02.864Z,1037.66
2016-10-05T06:33:28.421Z,1037.62
2016-10-05T06:33:54.019Z,1037.62
2016-10-05T06:34:19.751Z,1037.61
2016-10-05T06:34:45.310Z,1037.63
2016-10-05T06:35:10.930Z,1037.66
2016-10-05T06:35:36.543Z,1037.66
2016-10-05T06:36:02.113Z,1037.63
2016-10-05T06:36:27.772Z,1037.67
2016-10-05T06:36:53.368Z,1037.64
2016-10-05T06:37:18.999Z,1037.68
2016-10-05T06:37:44.682Z,1037.67
2016-10-05T06:38:10.243Z,1037.64
2016-10-05T06:38:35.888Z,1037.64
2016-10-05T06:39:01.446Z,1037.63
2016-10-05T06:39:27.181Z,1037.65
2016-10-05T06:39:52.936Z,1037.61
2016-10-05T06:40:18.499Z,1037.63
2016-10-05T06:41:27.755Z,1037.6
2016-10-05T06:41:53.384Z,1037.61
2016-10-05T06:42:18.991Z,1037.61
2016-10-05T06:42:44.528Z,1037.59
2016-10-05T06:44:40.908Z,1037.62
2016-10-05T06:45:06.469Z,1037.58
2016-10-05T06:45:32.122Z,1037.58
2016-10-05T06:45:57.815Z,1037.62
2016-10-05T06:47:01.104Z,1037.6
2016-10-05T06:47:26.768Z,1037.6
2016-10-05T06:47:52.303Z,1037.6
2016-10-05T06:48:17.923Z,1037.59
2016-10-05T06:48:43.494Z,1037.58
2016-10-05T06:49:09.128Z,1037.58
2016-10-05T06:49:34.743Z,1037.55
2016-10-05T06:50:00.362Z,1037.56
2016-10-05T06:50:25.995Z,1037.57
2016-10-05T06:50:51.568Z,1037.58
2016-10-05T06:51:17.179Z,1037.58
2016-10-05T06:51:42.735Z,1037.56
2016-10-05T06:52:08.327Z,1037.59
2016-10-05T06:52:33.889Z,1037.62
2016-10-05T06:52:59.424Z,1037.61
2016-10-05T06:53:25.032Z,1037.66
2016-10-05T06:53:50.613Z,1037.62
2016-10-05T06:54:16.238Z,1037.65
2016-10-05T06:54:41.831Z,1037.63
2016-10-05T06:55:07.384Z,1037.64
2016-10-05T06:55:33.173Z,1037.62
2016-10-05T06:55:58.735Z,1037.61
2016-10-05T06:56:24.371Z,1037.62
2016-10-05T06:56:49.934Z,1037.61
2016-10-05T06:57:15.497Z,1037.6
2016-10-05T06:57:41.108Z,1037.56
2016-10-05T06:58:06.653Z,1037.55
2016-10-05T06:58:32.331Z,1037.59
2016-10-05T06:58:57.967Z,1037.6
2016-10-05T06:59:23.534Z,1037.59
2016-10-05T06:59:49.242Z,1037.61
2016-10-05T07:00:14.808Z,1037.57
2016-10-05T07:00:40.525Z,1037.58
2016-10-05T07:01:06.151Z,1037.58
2016-10-05T07:01:31.721Z,1037.6
2016-10-05T07:01:57.313Z,1037.61
2016-10-05T07:02:22.864Z,1037.6
2016-10-05T07:02:48.444Z,1037.57
2016-10-05T07:03:14.041Z,1037.59
2016-10-05T07:03:39.601Z,1037.6
2016-10-05T07:04:05.183Z,1037.62
2016-10-05T07:04:30.758Z,1037.64
2016-10-05T07:04:56.444Z,1037.61
2016-10-05T07:05:22.106Z,1037.59
2016-10-05T07:05:47.656Z,1037.57
2016-10-05T07:06:13.259Z,1037.55
2016-10-05T07:06:38.844Z,1037.55
2016-10-05T07:07:04.521Z,1037.56
2016-10-05T07:07:30.164Z,1037.59
2016-10-05T07:07:55.730Z,1037.61
2016-10-05T07:08:21.326Z,1037.61
2016-10-05T07:08:46.915Z,1037.59
2016-10-05T07:09:12.580Z,1037.54
2016-10-05T07:09:38.166Z,1037.57
2016-10-05T07:10:03.724Z,1037.57
2016-10-05T07:10:29.361Z,1037.58
2016-10-05T07:10:54.924Z,1037.58
2016-10-05T07:11:20.548Z,1037.59
2016-10-05T07:11:46.325Z,1037.63
2016-10-05T07:12:11.894Z,1037.63
2016-10-05T07:14:18.835Z,1037.62
2016-10-05T07:14:44.519Z,1037.61
2016-10-05T07:15:10.105Z,1037.61
2016-10-05T07:15:35.702Z,1037.59
2016-10-05T07:16:01.284Z,1037.64
2016-10-05T07:16:26.826Z,1037.64
2016-10-05T07:16:52.430Z,1037.62
2016-10-05T07:17:17.994Z,1037.57
2016-10-05T07:17:43.695Z,1037.58
2016-10-05T07:18:09.279Z,1037.59
2016-10-05T07:18:34.854Z,1037.61
2016-10-05T07:19:00.430Z,1037.62
2016-10-05T07:19:26.004Z,1037.64
2016-10-05T07:19:51.648Z,1037.63
2016-10-05T07:20:17.293Z,1037.7
2016-10-05T07:20:42.947Z,1037.64
2016-10-05T07:21:08.570Z,1037.63
2016-10-05T07:21:34.787Z,1037.62
2016-10-05T07:22:00.357Z,1037.6
2016-10-05T07:22:25.910Z,1037.58
2016-10-05T07:22:51.502Z,1037.59
2016-10-05T07:23:17.070Z,1037.6
2016-10-05T07:23:42.750Z,1037.61
2016-10-05T07:24:08.374Z,1037.65
2016-10-05T07:24:33.963Z,1037.67
2016-10-05T07:24:59.564Z,1037.64
2016-10-05T07:25:25.350Z,1037.63
2016-10-05T07:25:50.831Z,1037.62
2016-10-05T07:26:16.432Z,1037.66
2016-10-05T07:26:42.085Z,1037.67
2016-10-05T07:27:07.858Z,1037.68
2016-10-05T07:27:33.488Z,1037.67
2016-10-05T07:27:59.049Z,1037.65
2016-10-05T07:28:24.744Z,1037.66
2016-10-05T07:28:50.419Z,1037.68
2016-10-05T07:29:15.939Z,1037.68
2016-10-05T07:29:41.498Z,1037.74
2016-10-05T07:30:07.161Z,1037.66
2016-10-05T07:30:32.996Z,1037.7
2016-10-05T07:30:58.616Z,1037.68
2016-10-05T07:31:24.264Z,1037.72
2016-10-05T07:31:49.878Z,1037.66
2016-10-05T07:32:15.509Z,1037.69
2016-10-05T07:32:41.181Z,1037.7
2016-10-05T07:33:06.776Z,1037.64
2016-10-05T07:33:32.358Z,1037.69
2016-10-05T07:33:57.994Z,1037.72
2016-10-05T07:34:23.557Z,1037.71
2016-10-05T07:34:49.140Z,1037.67
2016-10-05T07:35:14.842Z,1037.7
2016-10-05T07:35:40.405Z,1037.69
2016-10-05T07:36:48.826Z,1037.73
2016-10-05T07:37:14.389Z,1037.72
2016-10-05T07:37:40.014Z,1037.74
2016-10-05T07:38:05.656Z,1037.71
2016-10-05T07:38:31.336Z,1037.72
2016-10-05T07:38:56.983Z,1037.78
2016-10-05T07:39:22.625Z,1037.75
2016-10-05T07:39:48.201Z,1037.72
2016-10-05T07:40:13.810Z,1037.81
2016-10-05T07:40:39.382Z,1037.71
2016-10-05T07:42:40.710Z,1037.74
2016-10-05T07:43:06.292Z,1037.73
2016-10-05T07:43:31.932Z,1037.71
2016-10-05T07:43:57.495Z,1037.71
2016-10-05T07:44:23.116Z,1037.73
2016-10-05T07:44:48.703Z,1037.72
2016-10-05T07:45:14.358Z,1037.64
2016-10-05T07:45:40.030Z,1037.71
2016-10-05T07:46:05.602Z,1037.75
2016-10-05T07:46:31.196Z,1037.72
2016-10-05T07:46:56.788Z,1037.73
2016-10-05T07:47:22.351Z,1037.73
2016-10-05T07:47:47.978Z,1037.68
2016-10-05T07:48:13.542Z,1037.71
2016-10-05T07:48:39.152Z,1037.73
2016-10-05T07:49:04.926Z,1037.74
2016-10-05T07:49:30.489Z,1037.72
2016-10-05T07:49:56.187Z,1037.72
2016-10-05T07:50:21.834Z,1037.68
2016-10-05T07:50:47.391Z,1037.66
2016-10-05T07:51:13.046Z,1037.67
2016-10-05T07:51:38.669Z,1037.67
2016-10-05T07:52:04.324Z,1037.65
2016-10-05T07:52:29.879Z,1037.63
2016-10-05T07:52:55.443Z,1037.66
2016-10-05T07:53:21.036Z,1037.66
2016-10-05T07:53:46.634Z,1037.65
2016-10-05T07:54:12.299Z,1037.67
2016-10-05T07:54:37.941Z,1037.64
2016-10-05T07:55:03.494Z,1037.64
2016-10-05T07:55:29.142Z,1037.68
2016-10-05T07:55:54.684Z,1037.65
2016-10-05T07:56:20.256Z,1037.63
2016-10-05T07:56:45.909Z,1037.68
2016-10-05T07:57:11.477Z,1037.69
2016-10-05T07:57:37.155Z,1037.73
2016-10-05T07:58:02.720Z,1037.69
2016-10-05T07:58:28.345Z,1037.71
2016-10-05T07:58:53.974Z,1037.67
2016-10-05T07:59:19.530Z,1037.7
2016-10-05T07:59:45.096Z,1037.68
2016-10-05T08:00:10.645Z,1037.66
2016-10-05T08:00:36.272Z,1037.68
2016-10-05T08:01:01.809Z,1037.71
2016-10-05T08:01:27.499Z,1037.66
2016-10-05T08:01:53.091Z,1037.65
2016-10-05T08:02:18.645Z,1037.61
2016-10-05T08:02:45.035Z,1037.67
2016-10-05T08:03:10.635Z,1037.61
2016-10-05T08:04:29.279Z,1037.66
2016-10-05T08:05:37.540Z,1037.64
2016-10-05T08:06:03.133Z,1037.63
2016-10-05T08:06:28.693Z,1037.57
2016-10-05T08:06:54.336Z,1037.58
2016-10-05T08:07:19.909Z,1037.66
2016-10-05T08:07:45.536Z,1037.69
2016-10-05T08:08:11.133Z,1037.64
2016-10-05T08:08:36.679Z,1037.68
2016-10-05T08:09:02.272Z,1037.62
2016-10-05T08:09:27.829Z,1037.65
2016-10-05T08:09:53.474Z,1037.65
2016-10-05T08:10:19.039Z,1037.64
2016-10-05T08:10:44.677Z,1037.62
2016-10-05T08:11:10.297Z,1037.62
2016-10-05T08:11:35.885Z,1037.66
2016-10-05T08:12:01.669Z,1037.66
2016-10-05T08:12:27.326Z,1037.62
2016-10-05T08:13:25.473Z,1037.67
2016-10-05T08:13:51.044Z,1037.63
2016-10-05T08:14:16.679Z,1037.64
2016-10-05T08:14:42.255Z,1037.64
2016-10-05T08:15:07.958Z,1037.63
2016-10-05T08:15:33.777Z,1037.61
2016-10-05T08:15:59.689Z,1037.6
2016-10-05T08:16:25.014Z,1037.66
2016-10-05T08:16:50.567Z,1037.64
2016-10-05T08:17:16.120Z,1037.61
2016-10-05T08:17:41.706Z,1037.61
2016-10-05T08:18:07.272Z,1037.61
2016-10-05T08:18:32.818Z,1037.61
2016-10-05T08:18:58.404Z,1037.65
2016-10-05T08:19:23.988Z,1037.64
2016-10-05T08:19:49.738Z,1037.58
2016-10-05T08:20:15.312Z,1037.62
2016-10-05T08:20:40.841Z,1037.63
2016-10-05T08:21:06.402Z,1037.52
2016-10-05T08:21:31.950Z,1037.55
2016-10-05T08:21:57.681Z,1037.53
2016-10-05T08:22:23.304Z,1037.54
2016-10-05T08:22:48.947Z,1037.53
2016-10-05T08:23:14.587Z,1037.51
2016-10-05T08:23:40.134Z,1037.51
2016-10-05T08:24:05.862Z,1037.53
2016-10-05T08:24:31.499Z,1037.51
2016-10-05T08:24:57.078Z,1037.51
2016-10-05T08:25:22.716Z,1037.52
2016-10-05T08:25:48.367Z,1037.52
2016-10-05T08:26:13.817Z,1037.49
2016-10-05T08:26:39.392Z,1037.48